KSHD/SHD METAR and TAF weather

Enter ICAO airport designator
Station Type Date Time Source
KSHD METAR 2021/07/28 05:15 UTC NOAA

KSHD 280515Z AUTO 00000KT 10SM CLR 20/19 A3007 RMK AO2 LTG DSNT S T01950189


Station Type Date Time Source
KSHD Decoded METAR 2021/07/28 05:15 UTC NOAA

Staunton / Shenandoah, VA, United States (KSHD) 38-16N 078-54W
Jul 28, 2021 - 01:15 AM EDT / 2021.07.28 0515 UTC
Wind: Calm:0
Visibility: 10 mile(s):0
Sky conditions: clear
Weather: Lightning observed
Temperature: 67.1 F (19.5 C)
Dew Point: 66.0 F (18.9 C)
Relative Humidity: 96%
Pressure (altimeter): 30.07 in. Hg (1018 hPa)
ob: KSHD 280515Z AUTO 00000KT 10SM CLR 20/19 A3007 RMK AO2 LTG DSNT S T01950189
cycle: 5

Station Type Date Time Source
KSHD TAF UTC NOAA

Error!

Example: see airport list